createdAt,value
2017-11-23T00:00:56.547Z,45
2017-11-23T00:02:05.465Z,45.1
2017-11-23T00:03:14.627Z,45.1
2017-11-23T00:04:23.539Z,45.17
2017-11-23T00:05:33.012Z,44.9
2017-11-23T00:06:41.994Z,45.36
2017-11-23T00:07:51.163Z,44.9
2017-11-23T00:08:59.795Z,45.1
2017-11-23T00:10:08.995Z,45.39
2017-11-23T00:11:17.911Z,45.1
2017-11-23T00:12:27.081Z,45.2
2017-11-23T00:13:36.517Z,45.29
2017-11-23T00:14:45.689Z,45.36
2017-11-23T00:15:55.112Z,45.2
2017-11-23T00:17:04.539Z,45.2
2017-11-23T00:18:14.992Z,45.17
2017-11-23T00:19:25.327Z,45.58
2017-11-23T00:20:34.047Z,45.2
2017-11-23T00:21:43.333Z,45.2
2017-11-23T00:22:52.994Z,45.29
2017-11-23T00:24:01.716Z,45.29
2017-11-23T00:25:11.276Z,45.2
2017-11-23T00:26:21.129Z,45.2
2017-11-23T00:27:30.572Z,45.2
2017-11-23T00:28:39.322Z,45.2
2017-11-23T00:29:48.197Z,45.48
2017-11-23T00:30:56.945Z,45.27
2017-11-23T00:32:06.177Z,45.68
2017-11-23T00:33:15.365Z,45.48
2017-11-23T00:34:24.311Z,45.58
2017-11-23T00:35:33.783Z,45.2
2017-11-23T00:36:43.620Z,45.58
2017-11-23T00:37:52.665Z,45.56
2017-11-23T00:39:01.900Z,45.27
2017-11-23T00:40:11.609Z,45.46
2017-11-23T00:41:20.342Z,45.39
2017-11-23T00:42:29.546Z,45.65
2017-11-23T00:43:38.234Z,45.58
2017-11-23T00:44:47.428Z,45.56
2017-11-23T00:45:56.320Z,45.65
2017-11-23T00:47:05.533Z,45.68
2017-11-23T00:48:14.735Z,45.58
2017-11-23T00:49:24.000Z,45.68
2017-11-23T00:50:33.241Z,45.58
2017-11-23T00:51:42.470Z,45.07
2017-11-23T00:52:51.481Z,44.98
2017-11-23T00:54:00.466Z,45.58
2017-11-23T00:55:09.419Z,45.07
2017-11-23T00:56:18.963Z,45.07
2017-11-23T00:57:28.736Z,45.75
2017-11-23T00:58:37.396Z,45.56
2017-11-23T00:59:46.891Z,45.1
2017-11-23T01:00:55.528Z,45.56
2017-11-23T01:02:04.444Z,45.1
2017-11-23T01:03:13.342Z,45.58
2017-11-23T01:04:22.777Z,45.1
2017-11-23T01:05:31.472Z,45.17
2017-11-23T01:06:40.673Z,45.56
2017-11-23T01:07:49.877Z,45.1
2017-11-23T01:08:59.318Z,45.48
2017-11-23T01:10:08.748Z,45.2
2017-11-23T01:11:17.687Z,45.07
2017-11-23T01:12:27.399Z,45.17
2017-11-23T01:13:36.520Z,45.07
2017-11-23T01:14:45.718Z,45.75
2017-11-23T01:15:55.213Z,45.2
2017-11-23T01:17:03.981Z,45.17
2017-11-23T01:18:13.702Z,45.27
2017-11-23T01:19:22.359Z,45.2
2017-11-23T01:20:31.306Z,45.17
2017-11-23T01:21:40.552Z,45.29
2017-11-23T01:22:49.465Z,45.56
2017-11-23T01:23:58.119Z,45.58
2017-11-23T01:25:06.989Z,45.07
2017-11-23T01:26:15.979Z,45.58
2017-11-23T01:27:25.235Z,45.56
2017-11-23T01:28:33.956Z,45.2
2017-11-23T01:29:42.960Z,45.68
2017-11-23T01:30:53.006Z,45.56
2017-11-23T01:32:02.259Z,45.2
2017-11-23T01:33:11.437Z,45.56
2017-11-23T01:34:20.160Z,45.17
2017-11-23T01:35:29.083Z,45.2
2017-11-23T01:36:38.342Z,45.2
2017-11-23T01:37:47.007Z,45.75
2017-11-23T01:38:55.801Z,45.2
2017-11-23T01:40:04.734Z,45.2
2017-11-23T01:41:13.986Z,45.27
2017-11-23T01:42:23.230Z,45.17
2017-11-23T01:43:32.200Z,45.2
2017-11-23T01:44:41.421Z,45.1
2017-11-23T01:45:50.670Z,45.2
2017-11-23T01:46:59.846Z,45.17
2017-11-23T01:48:09.301Z,45.2
2017-11-23T01:49:18.301Z,45.2
2017-11-23T01:50:27.762Z,45.2
2017-11-23T01:51:36.698Z,45.2
2017-11-23T01:52:45.646Z,45.29
2017-11-23T01:53:54.590Z,45.58
2017-11-23T01:55:03.556Z,45.46
2017-11-23T01:56:12.757Z,45.2
2017-11-23T01:57:22.009Z,45.27
2017-11-23T01:58:30.920Z,45.27
2017-11-23T01:59:39.837Z,45.27
2017-11-23T02:00:49.624Z,45.27
2017-11-23T02:01:58.630Z,45.27
2017-11-23T02:03:07.853Z,45.27
2017-11-23T02:04:17.409Z,45.29
2017-11-23T02:05:26.346Z,45.27
2017-11-23T02:06:35.265Z,45.17
2017-11-23T02:07:44.712Z,45.39
2017-11-23T02:08:53.872Z,45.17
2017-11-23T02:10:03.379Z,45.36
2017-11-23T02:11:12.579Z,45.46
2017-11-23T02:12:21.270Z,45.2
2017-11-23T02:13:30.462Z,45.36
2017-11-23T02:14:39.488Z,45.36
2017-11-23T02:15:48.128Z,45.36
2017-11-23T02:16:57.839Z,45.17
2017-11-23T02:18:06.498Z,45.2
2017-11-23T02:19:15.703Z,45.36
2017-11-23T02:20:25.194Z,45.27
2017-11-23T02:21:34.629Z,45.17
2017-11-23T02:22:44.093Z,45.36
2017-11-23T02:23:53.278Z,45.36
2017-11-23T02:25:02.267Z,44.98
2017-11-23T02:26:11.463Z,45.1
2017-11-23T02:27:20.426Z,45.17
2017-11-23T02:28:29.434Z,45.17
2017-11-23T02:29:38.330Z,44.98
2017-11-23T02:30:47.526Z,44.98
2017-11-23T02:31:56.755Z,45.27
2017-11-23T02:33:05.922Z,45.27
2017-11-23T02:34:15.099Z,45.46
2017-11-23T02:35:24.853Z,45.36
2017-11-23T02:36:34.038Z,45.36
2017-11-23T02:37:42.948Z,45.17
2017-11-23T02:38:51.902Z,45.36
2017-11-23T02:40:01.066Z,45.29
2017-11-23T02:41:10.532Z,45.17
2017-11-23T02:42:19.971Z,45.36
2017-11-23T02:43:29.144Z,45.36
2017-11-23T02:44:38.086Z,45.58
2017-11-23T02:45:47.026Z,45.36
2017-11-23T02:46:55.978Z,45.36
2017-11-23T02:48:05.159Z,45.17
2017-11-23T02:49:14.089Z,45.36
2017-11-23T02:50:22.762Z,45.36
2017-11-23T02:51:31.954Z,45.17
2017-11-23T02:52:41.140Z,45.17
2017-11-23T02:53:50.575Z,45.36
2017-11-23T02:55:00.276Z,45.17
2017-11-23T02:56:09.466Z,45.17
2017-11-23T02:57:18.409Z,45.17
2017-11-23T02:58:27.838Z,45.17
2017-11-23T02:59:36.756Z,45.27
2017-11-23T03:00:45.403Z,45.07
2017-11-23T03:01:54.044Z,45.27
2017-11-23T03:03:02.692Z,45.36
2017-11-23T03:04:11.870Z,45.56
2017-11-23T03:05:21.570Z,45.17
2017-11-23T03:06:30.498Z,45.17
2017-11-23T03:07:39.967Z,45.36
2017-11-23T03:08:48.856Z,45.17
2017-11-23T03:09:58.051Z,45.56
2017-11-23T03:11:06.975Z,45.07
2017-11-23T03:12:15.872Z,45.65
2017-11-23T03:13:25.039Z,45.07
2017-11-23T03:14:33.699Z,45.46
2017-11-23T03:15:42.608Z,45.17
2017-11-23T03:16:52.030Z,45.58
2017-11-23T03:18:00.952Z,45.65
2017-11-23T03:19:10.399Z,45.1
2017-11-23T03:20:19.575Z,45.56
2017-11-23T03:21:28.506Z,45.07
2017-11-23T03:22:37.961Z,45.56
2017-11-23T03:23:47.136Z,45.56
2017-11-23T03:24:56.034Z,45.17
2017-11-23T03:26:04.703Z,45.56
2017-11-23T03:27:13.656Z,45.56
2017-11-23T03:28:22.840Z,44.98
2017-11-23T03:29:32.289Z,45.58
2017-11-23T03:30:41.203Z,45.58
2017-11-23T03:31:50.100Z,45.27
2017-11-23T03:32:59.022Z,45.56
2017-11-23T03:34:07.966Z,45.46
2017-11-23T03:35:17.154Z,45.56
2017-11-23T03:36:26.319Z,45.56
2017-11-23T03:37:35.208Z,45.56
2017-11-23T03:38:44.186Z,45.56
2017-11-23T03:39:52.836Z,45.27
2017-11-23T03:41:02.302Z,45.27
2017-11-23T03:42:11.482Z,45.17
2017-11-23T03:43:20.395Z,45.56
2017-11-23T03:44:29.826Z,45.27
2017-11-23T03:45:39.262Z,45.56
2017-11-23T03:46:48.465Z,45.56
2017-11-23T03:47:57.373Z,45.17
2017-11-23T03:49:06.538Z,45.17
2017-11-23T03:50:15.484Z,45.17
2017-11-23T03:51:24.403Z,45.17
2017-11-23T03:52:33.848Z,45.46
2017-11-23T03:53:42.811Z,45.17
2017-11-23T03:54:52.335Z,45.17
2017-11-23T03:56:01.609Z,45.56
2017-11-23T03:57:10.520Z,45.56
2017-11-23T03:58:19.195Z,45.27
2017-11-23T03:59:28.164Z,45.29
2017-11-23T04:00:37.085Z,45.29
2017-11-23T04:01:45.725Z,45.07
2017-11-23T04:02:55.165Z,45.27
2017-11-23T04:04:04.610Z,45.36
2017-11-23T04:05:14.053Z,45.27
2017-11-23T04:06:22.970Z,45.17
2017-11-23T04:07:32.462Z,45.27
2017-11-23T04:08:41.909Z,45.17
2017-11-23T04:09:51.073Z,45.27
2017-11-23T04:11:00.786Z,45.29
2017-11-23T04:12:10.216Z,45.17
2017-11-23T04:13:19.686Z,45.17
2017-11-23T04:14:28.595Z,45.27
2017-11-23T04:15:37.240Z,45.17
2017-11-23T04:16:46.137Z,45.46
2017-11-23T04:17:55.044Z,45.17
2017-11-23T04:19:03.948Z,45.17
2017-11-23T04:20:13.647Z,45.27
2017-11-23T04:21:22.558Z,45.46
2017-11-23T04:22:31.783Z,45.17
2017-11-23T04:23:40.420Z,45.27
2017-11-23T04:24:49.845Z,45.17
2017-11-23T04:25:58.778Z,45.36
2017-11-23T04:27:07.945Z,45.17
2017-11-23T04:28:16.851Z,45.17
2017-11-23T04:29:25.545Z,45.2
2017-11-23T04:30:34.483Z,45.17
2017-11-23T04:31:43.427Z,45.2
2017-11-23T04:32:52.347Z,45.2
2017-11-23T04:34:02.041Z,45.07
2017-11-23T04:35:10.930Z,45.07
2017-11-23T04:36:20.107Z,45
2017-11-23T04:37:29.557Z,45.17
2017-11-23T04:38:38.997Z,45.07
2017-11-23T04:39:48.212Z,44.98
2017-11-23T04:40:57.381Z,45.07
2017-11-23T04:42:06.803Z,44.98
2017-11-23T04:43:16.036Z,44.89
2017-11-23T04:44:24.943Z,45.07
2017-11-23T04:45:34.122Z,44.98
2017-11-23T04:46:43.313Z,45.17
2017-11-23T04:47:51.953Z,45.17
2017-11-23T04:49:00.629Z,44.89
2017-11-23T04:50:09.562Z,45
2017-11-23T04:51:18.732Z,45.2
2017-11-23T04:52:27.650Z,44.79
2017-11-23T04:53:36.834Z,45.07
2017-11-23T04:54:46.007Z,45.17
2017-11-23T04:55:55.486Z,45.2
2017-11-23T04:57:04.657Z,45.2
2017-11-23T04:58:13.304Z,45.17
2017-11-23T04:59:22.468Z,45.07
2017-11-23T05:00:31.369Z,44.9
2017-11-23T05:01:40.286Z,45.17
2017-11-23T05:02:49.503Z,45.17
2017-11-23T05:03:58.169Z,45.17
2017-11-23T05:05:07.386Z,45.17
2017-11-23T05:06:16.870Z,45.17
2017-11-23T05:07:26.066Z,45.17
2017-11-23T05:08:35.245Z,45.17
2017-11-23T05:09:44.410Z,45.17
2017-11-23T05:10:53.324Z,45.17
2017-11-23T05:12:03.459Z,45.07
2017-11-23T05:13:12.619Z,44.98
2017-11-23T05:14:21.296Z,45.07
2017-11-23T05:15:30.752Z,45.17
2017-11-23T05:16:39.682Z,45.17
2017-11-23T05:17:48.324Z,45.17
2017-11-23T05:18:57.517Z,45.1
2017-11-23T05:20:06.691Z,45.2
2017-11-23T05:21:16.141Z,44.98
2017-11-23T05:22:26.113Z,44.98
2017-11-23T05:23:35.030Z,44.98
2017-11-23T05:24:43.954Z,45.17
2017-11-23T05:25:53.424Z,44.89
2017-11-23T05:27:02.108Z,45.07
2017-11-23T05:28:11.286Z,45.07
2017-11-23T05:29:19.952Z,44.98
2017-11-23T05:30:28.619Z,44.98
2017-11-23T05:31:37.254Z,44.98
2017-11-23T05:32:45.889Z,44.98
2017-11-23T05:33:55.321Z,44.98
2017-11-23T05:35:04.516Z,44.79
2017-11-23T05:36:13.439Z,45.07
2017-11-23T05:37:23.136Z,45.17
2017-11-23T05:38:32.847Z,45.07
2017-11-23T05:39:41.808Z,44.98
2017-11-23T05:40:51.496Z,45.07
2017-11-23T05:42:00.414Z,44.69
2017-11-23T05:43:09.061Z,44.89
2017-11-23T05:44:18.497Z,44.69
2017-11-23T05:45:27.434Z,44.71
2017-11-23T05:46:36.340Z,44.59
2017-11-23T05:47:45.511Z,44.81
2017-11-23T05:48:54.437Z,44.89
2017-11-23T05:50:03.649Z,44.79
2017-11-23T05:51:12.564Z,44.69
2017-11-23T05:52:21.479Z,44.71
2017-11-23T05:53:30.101Z,44.69
2017-11-23T05:54:38.754Z,44.71
2017-11-23T05:55:48.201Z,44.9
2017-11-23T05:56:57.125Z,44.79
2017-11-23T05:58:06.316Z,44.79
2017-11-23T05:59:15.498Z,44.9
2017-11-23T06:00:24.681Z,44.9
2017-11-23T06:01:33.589Z,44.9
2017-11-23T06:02:42.491Z,44.81
2017-11-23T06:03:51.658Z,44.42
2017-11-23T06:05:01.095Z,44.71
2017-11-23T06:06:10.264Z,44.81
2017-11-23T06:07:19.460Z,44.81
2017-11-23T06:08:28.377Z,44.13
2017-11-23T06:09:37.337Z,44.23
2017-11-23T06:10:46.245Z,44.04
2017-11-23T06:11:55.165Z,44.04
2017-11-23T06:13:04.366Z,44.35
2017-11-23T06:14:13.881Z,44.15
2017-11-23T06:15:23.341Z,43.96
2017-11-23T06:16:32.564Z,43.96
2017-11-23T06:17:41.742Z,44.06
2017-11-23T06:18:51.209Z,43.48
2017-11-23T06:19:59.926Z,43.77
2017-11-23T06:21:08.872Z,43.58
2017-11-23T06:22:18.320Z,43.67
2017-11-23T06:23:27.023Z,43.48
2017-11-23T06:24:36.232Z,43.12
2017-11-23T06:25:45.673Z,43.02
2017-11-23T06:26:54.601Z,43.21
2017-11-23T06:28:03.519Z,42.83
2017-11-23T06:29:12.679Z,43.12
2017-11-23T06:30:21.417Z,42.83
2017-11-23T06:31:30.665Z,42.93
2017-11-23T06:32:39.851Z,42.66
2017-11-23T06:33:49.277Z,42.66
2017-11-23T06:34:58.492Z,42.56
2017-11-23T06:36:07.410Z,42.56
2017-11-23T06:37:16.041Z,42.27
2017-11-23T06:38:25.516Z,42.46
2017-11-23T06:39:34.733Z,41.88
2017-11-23T06:40:43.919Z,42.36
2017-11-23T06:41:53.335Z,42.27
2017-11-23T06:43:02.774Z,42.36
2017-11-23T06:44:11.966Z,42.19
2017-11-23T06:45:20.897Z,42.19
2017-11-23T06:46:30.108Z,42.1
2017-11-23T06:47:39.396Z,41.91
2017-11-23T06:48:48.961Z,42.19
2017-11-23T06:49:57.886Z,42.19
2017-11-23T06:51:07.607Z,42.1
2017-11-23T06:52:16.283Z,42.19
2017-11-23T06:53:25.198Z,42
2017-11-23T06:54:34.378Z,42
2017-11-23T06:55:44.101Z,42
2017-11-23T06:56:53.029Z,42.12
2017-11-23T06:58:01.698Z,42
2017-11-23T06:59:10.597Z,42.29
2017-11-23T07:00:20.039Z,42.1
2017-11-23T07:01:28.682Z,42.1
2017-11-23T07:02:37.877Z,42.39
2017-11-23T07:03:47.101Z,42.29
2017-11-23T07:04:56.134Z,42.19
2017-11-23T07:06:06.043Z,42.29
2017-11-23T07:07:14.716Z,42.48
2017-11-23T07:08:23.884Z,42.39
2017-11-23T07:09:33.335Z,42.68
2017-11-23T07:10:42.257Z,42.39
2017-11-23T07:11:51.461Z,42.19
2017-11-23T07:13:00.137Z,42.77
2017-11-23T07:14:08.846Z,42.77
2017-11-23T07:15:18.026Z,42.68
2017-11-23T07:16:27.477Z,42.97
2017-11-23T07:17:36.647Z,42.87
2017-11-23T07:18:45.305Z,43.06
2017-11-23T07:19:54.760Z,43.16
2017-11-23T07:21:03.673Z,43.16
2017-11-23T07:22:13.110Z,42.97
2017-11-23T07:23:22.089Z,42.87
2017-11-23T07:24:31.515Z,43.16
2017-11-23T07:25:40.456Z,43.16
2017-11-23T07:26:49.379Z,42.85
2017-11-23T07:27:58.556Z,43.33
2017-11-23T07:29:08.032Z,42.94
2017-11-23T07:30:17.480Z,43.52
2017-11-23T07:31:26.391Z,43.91
2017-11-23T07:32:35.824Z,43.81
2017-11-23T07:33:44.776Z,43.72
2017-11-23T07:34:54.211Z,43.62
2017-11-23T07:36:03.637Z,43.62
2017-11-23T07:37:13.094Z,43.52
2017-11-23T07:38:22.289Z,43.62
2017-11-23T07:39:31.253Z,43.52
2017-11-23T07:40:40.176Z,43.91
2017-11-23T07:41:49.095Z,43.91
2017-11-23T07:42:58.266Z,44.1
2017-11-23T07:44:07.439Z,44.1
2017-11-23T07:45:17.156Z,43.91
2017-11-23T07:46:26.333Z,44.01
2017-11-23T07:47:35.244Z,44.01
2017-11-23T07:48:45.224Z,43.81
2017-11-23T07:49:54.133Z,44.39
2017-11-23T07:51:03.066Z,44.2
2017-11-23T07:52:12.248Z,44.2
2017-11-23T07:53:21.699Z,44.2
2017-11-23T07:54:30.368Z,44.1
2017-11-23T07:55:39.275Z,44.01
2017-11-23T07:56:48.727Z,44.01
2017-11-23T07:57:57.898Z,44.37
2017-11-23T07:59:07.077Z,44.37
2017-11-23T08:00:16.267Z,44.08
2017-11-23T08:01:25.472Z,44.08
2017-11-23T08:02:34.410Z,44.08
2017-11-23T08:03:43.349Z,44.08
2017-11-23T08:04:52.279Z,44.18
2017-11-23T08:06:01.463Z,44.18
2017-11-23T08:07:10.652Z,44.27
2017-11-23T08:08:20.089Z,44.08
2017-11-23T08:09:28.739Z,44.27
2017-11-23T08:10:38.477Z,44.18
2017-11-23T08:11:47.944Z,44.37
2017-11-23T08:12:57.123Z,44.37
2017-11-23T08:14:06.298Z,44.08
2017-11-23T08:15:15.854Z,44.18
2017-11-23T08:16:24.520Z,44.27
2017-11-23T08:17:33.693Z,44.66
2017-11-23T08:18:43.400Z,44.27
2017-11-23T08:19:52.951Z,44.27
2017-11-23T08:21:01.643Z,44.95
2017-11-23T08:22:10.685Z,44.76
2017-11-23T08:23:19.371Z,45.04
2017-11-23T08:24:28.545Z,44.85
2017-11-23T08:25:38.011Z,44.85
2017-11-23T08:26:47.452Z,44.66
2017-11-23T08:27:56.376Z,44.76
2017-11-23T08:29:05.834Z,44.85
2017-11-23T08:30:14.511Z,44.76
2017-11-23T08:31:23.699Z,44.56
2017-11-23T08:32:32.913Z,44.76
2017-11-23T08:33:42.133Z,44.76
2017-11-23T08:34:50.804Z,44.66
2017-11-23T08:35:59.717Z,44.56
2017-11-23T08:37:09.422Z,44.56
2017-11-23T08:38:18.347Z,44.66
2017-11-23T08:39:27.786Z,44.46
2017-11-23T08:40:37.227Z,44.66
2017-11-23T08:41:46.143Z,44.66
2017-11-23T08:42:55.313Z,44.56
2017-11-23T08:44:05.020Z,44.56
2017-11-23T08:45:14.486Z,44.76
2017-11-23T08:46:23.955Z,44.76
2017-11-23T08:47:32.891Z,44.66
2017-11-23T08:48:42.069Z,44.76
2017-11-23T08:49:51.580Z,44.76
2017-11-23T08:51:01.061Z,44.85
2017-11-23T08:52:09.721Z,45.04
2017-11-23T08:53:19.158Z,44.85
2017-11-23T08:54:28.599Z,44.85
2017-11-23T08:55:37.513Z,44.85
2017-11-23T08:56:47.213Z,44.85
2017-11-23T08:57:56.125Z,44.85
2017-11-23T08:59:05.073Z,44.85
2017-11-23T09:00:13.683Z,44.76
2017-11-23T09:01:22.850Z,44.66
2017-11-23T09:02:32.030Z,44.76
2017-11-23T09:03:41.217Z,44.66
2017-11-23T09:04:51.401Z,44.66
2017-11-23T09:06:00.848Z,44.66
2017-11-23T09:07:09.762Z,44.66
2017-11-23T09:08:19.197Z,44.76
2017-11-23T09:09:28.369Z,44.66
2017-11-23T09:10:37.275Z,44.66
2017-11-23T09:11:46.185Z,44.76
2017-11-23T09:12:55.109Z,44.66
2017-11-23T09:14:04.287Z,44.85
2017-11-23T09:15:13.455Z,45.04
2017-11-23T09:16:22.649Z,44.85
2017-11-23T09:17:31.829Z,44.85
2017-11-23T09:18:41.528Z,44.76
2017-11-23T09:19:51.215Z,44.76
2017-11-23T09:21:00.400Z,44.85
2017-11-23T09:22:10.096Z,44.85
2017-11-23T09:23:19.271Z,44.76
2017-11-23T09:24:28.978Z,44.85
2017-11-23T09:25:38.153Z,44.85
2017-11-23T09:26:47.068Z,45.04
2017-11-23T09:27:56.259Z,44.76
2017-11-23T09:29:05.426Z,44.76
2017-11-23T09:30:14.670Z,44.46
2017-11-23T09:31:23.847Z,44.66
2017-11-23T09:32:32.848Z,44.46
2017-11-23T09:33:42.015Z,44.66
2017-11-23T09:34:50.950Z,44.46
2017-11-23T09:36:00.681Z,44.18
2017-11-23T09:37:09.912Z,44.56
2017-11-23T09:38:19.090Z,44.18
2017-11-23T09:39:28.783Z,44.18
2017-11-23T09:40:37.980Z,44.46
2017-11-23T09:41:47.423Z,44.08
2017-11-23T09:42:56.895Z,44.18
2017-11-23T09:44:06.084Z,44.18
2017-11-23T09:45:15.295Z,44.37
2017-11-23T09:46:25.076Z,44.27
2017-11-23T09:47:34.259Z,44.18
2017-11-23T09:48:43.700Z,44.18
2017-11-23T09:49:53.165Z,44.27
2017-11-23T09:51:02.652Z,44.08
2017-11-23T09:52:11.803Z,44.08
2017-11-23T09:53:21.041Z,44.08
2017-11-23T09:54:29.735Z,44.08
2017-11-23T09:55:38.939Z,44.27
2017-11-23T09:56:48.002Z,44.18
2017-11-23T09:57:57.181Z,43.98
2017-11-23T09:59:05.851Z,43.98
2017-11-23T10:00:15.055Z,44.08
2017-11-23T10:01:23.741Z,44.08
2017-11-23T10:02:32.923Z,44.18
2017-11-23T10:03:41.840Z,44.08
2017-11-23T10:04:50.758Z,44.46
2017-11-23T10:05:59.948Z,44.08
2017-11-23T10:07:08.875Z,44.18
2017-11-23T10:08:18.365Z,44.08
2017-11-23T10:09:27.036Z,44.08
2017-11-23T10:10:36.476Z,44.27
2017-11-23T10:11:45.657Z,43.98
2017-11-23T10:12:54.842Z,44.27
2017-11-23T10:14:04.286Z,43.98
2017-11-23T10:15:13.213Z,44.18
2017-11-23T10:16:22.667Z,44.08
2017-11-23T10:17:31.867Z,44.08
2017-11-23T10:18:40.823Z,44.08
2017-11-23T10:19:50.268Z,43.98
2017-11-23T10:20:59.718Z,44.08
2017-11-23T10:22:08.400Z,44.18
2017-11-23T10:23:17.344Z,43.98
2017-11-23T10:24:26.811Z,44.08
2017-11-23T10:25:35.782Z,44.37
2017-11-23T10:26:44.751Z,44.08
2017-11-23T10:27:54.197Z,44.18
2017-11-23T10:29:03.618Z,44.18
2017-11-23T10:30:12.795Z,44.37
2017-11-23T10:31:21.979Z,43.98
2017-11-23T10:32:31.195Z,43.98
2017-11-23T10:33:39.886Z,43.89
2017-11-23T10:34:49.366Z,44.08
2017-11-23T10:35:58.561Z,43.89
2017-11-23T10:37:08.045Z,43.89
2017-11-23T10:38:17.525Z,43.98
2017-11-23T10:39:26.731Z,43.98
2017-11-23T10:40:35.650Z,44.08
2017-11-23T10:41:44.571Z,43.98
2017-11-23T10:42:53.755Z,44.18
2017-11-23T10:44:02.968Z,44.08
2017-11-23T10:45:12.201Z,44.08
2017-11-23T10:46:21.435Z,44.08
2017-11-23T10:47:30.375Z,44.08
2017-11-23T10:48:39.324Z,44.08
2017-11-23T10:49:48.767Z,44.08
2017-11-23T10:50:58.500Z,44.37
2017-11-23T10:52:07.450Z,44.08
2017-11-23T10:53:16.366Z,44.08
2017-11-23T10:54:25.581Z,43.98
2017-11-23T10:55:35.218Z,44.08
2017-11-23T10:56:44.430Z,43.98
2017-11-23T10:57:53.894Z,44.08
2017-11-23T10:59:02.605Z,44.08
2017-11-23T11:00:11.566Z,44.08
2017-11-23T11:01:20.253Z,43.98
2017-11-23T11:02:28.932Z,43.89
2017-11-23T11:03:38.121Z,44.18
2017-11-23T11:04:47.308Z,44.18
2017-11-23T11:05:55.973Z,43.89
2017-11-23T11:07:05.430Z,43.89
2017-11-23T11:08:14.113Z,44.08
2017-11-23T11:09:22.803Z,44.18
2017-11-23T11:10:32.354Z,43.98
2017-11-23T11:11:41.049Z,44.18
2017-11-23T11:12:50.330Z,43.98
2017-11-23T11:13:58.968Z,44.08
2017-11-23T11:15:08.690Z,44.08
2017-11-23T11:16:17.860Z,44.08
2017-11-23T11:17:26.780Z,44.18
2017-11-23T11:18:35.949Z,43.7
2017-11-23T11:19:45.140Z,43.89
2017-11-23T11:20:54.325Z,43.89
2017-11-23T11:22:03.257Z,43.79
2017-11-23T11:23:12.232Z,43.79
2017-11-23T11:24:21.416Z,44.08
2017-11-23T11:25:30.331Z,44.08
2017-11-23T11:26:39.783Z,43.98
2017-11-23T11:27:48.981Z,44.08
2017-11-23T11:28:57.885Z,44.01
2017-11-23T11:30:06.809Z,43.98
2017-11-23T11:31:15.755Z,44.1
2017-11-23T11:32:24.934Z,44.1
2017-11-23T11:33:34.119Z,43.91
2017-11-23T11:34:43.300Z,43.6
2017-11-23T11:35:52.517Z,43.33
2017-11-23T11:37:01.964Z,43.81
2017-11-23T11:38:11.144Z,43.62
2017-11-23T11:39:20.068Z,43.52
2017-11-23T11:40:29.251Z,43.43
2017-11-23T11:41:38.698Z,43.52
2017-11-23T11:42:47.338Z,43.52
2017-11-23T11:43:56.721Z,43.62
2017-11-23T11:45:05.632Z,43.52
2017-11-23T11:46:15.342Z,43.81
2017-11-23T11:47:24.516Z,43.52
2017-11-23T11:48:33.449Z,43.62
2017-11-23T11:49:42.366Z,43.33
2017-11-23T11:50:51.560Z,43.43
2017-11-23T11:52:01.000Z,43.62
2017-11-23T11:53:09.917Z,43.43
2017-11-23T11:54:19.364Z,43.62
2017-11-23T11:55:28.275Z,43.52
2017-11-23T11:56:37.200Z,43.72
2017-11-23T11:57:46.626Z,43.62
2017-11-23T11:58:56.144Z,43.62
2017-11-23T12:00:05.406Z,43.62
2017-11-23T12:01:14.585Z,43.62
2017-11-23T12:02:23.525Z,43.81
2017-11-23T12:03:32.726Z,43.62
2017-11-23T12:04:41.933Z,43.33
2017-11-23T12:05:51.110Z,43.52
2017-11-23T12:07:00.034Z,43.91
2017-11-23T12:08:09.461Z,44.2
2017-11-23T12:09:18.651Z,44.08
2017-11-23T12:10:28.082Z,44.08
2017-11-23T12:11:37.524Z,44.08
2017-11-23T12:12:46.732Z,44.08
2017-11-23T12:13:55.657Z,44.1
2017-11-23T12:15:04.593Z,43.89
2017-11-23T12:16:13.774Z,43.89
2017-11-23T12:17:22.713Z,43.89
2017-11-23T12:18:31.899Z,43.79
2017-11-23T12:19:41.366Z,43.79
2017-11-23T12:20:50.008Z,43.89
2017-11-23T12:21:59.726Z,44.08
2017-11-23T12:23:08.912Z,44.1
2017-11-23T12:24:18.087Z,43.89
2017-11-23T12:25:26.789Z,44.27
2017-11-23T12:26:36.269Z,43.89
2017-11-23T12:27:45.714Z,43.89
2017-11-23T12:28:54.633Z,44.08
2017-11-23T12:30:03.814Z,43.89
2017-11-23T12:31:12.985Z,44.18
2017-11-23T12:32:22.163Z,43.79
2017-11-23T12:33:31.354Z,44.18
2017-11-23T12:34:40.018Z,44.08
2017-11-23T12:35:49.741Z,44.18
2017-11-23T12:36:58.910Z,44.18
2017-11-23T12:38:07.558Z,44.18
2017-11-23T12:39:16.767Z,44.08
2017-11-23T12:40:25.715Z,44.18
2017-11-23T12:41:35.421Z,44.18
2017-11-23T12:42:44.874Z,43.79
2017-11-23T12:43:54.043Z,43.89
2017-11-23T12:45:03.494Z,43.79
2017-11-23T12:46:12.947Z,43.7
2017-11-23T12:47:22.190Z,43.7
2017-11-23T12:48:31.117Z,43.98
2017-11-23T12:49:40.541Z,43.79
2017-11-23T12:50:49.727Z,43.89
2017-11-23T12:51:58.914Z,43.79
2017-11-23T12:53:07.826Z,43.89
2017-11-23T12:54:17.260Z,43.89
2017-11-23T12:55:26.428Z,43.79
2017-11-23T12:56:35.406Z,43.98
2017-11-23T12:57:45.121Z,43.89
2017-11-23T12:58:54.577Z,43.98
2017-11-23T13:00:04.044Z,43.89
2017-11-23T13:01:12.961Z,44.08
2017-11-23T13:02:22.145Z,44.08
2017-11-23T13:03:31.338Z,44.08
2017-11-23T13:04:41.033Z,44.08
2017-11-23T13:05:50.489Z,44.08
2017-11-23T13:06:59.928Z,43.89
2017-11-23T13:08:09.119Z,44.08
2017-11-23T13:09:18.026Z,43.98
2017-11-23T13:10:26.673Z,43.89
2017-11-23T13:11:35.883Z,43.98
2017-11-23T13:12:45.199Z,44.08
2017-11-23T13:13:54.479Z,44.08
2017-11-23T13:15:03.466Z,44.08
2017-11-23T13:16:13.269Z,43.89
2017-11-23T13:17:22.046Z,43.79
2017-11-23T13:18:31.529Z,44.08
2017-11-23T13:19:40.518Z,43.89
2017-11-23T13:20:50.030Z,43.89
2017-11-23T13:21:59.400Z,43.89
2017-11-23T13:23:08.381Z,43.89
2017-11-23T13:24:17.614Z,43.79
2017-11-23T13:25:26.583Z,43.98
2017-11-23T13:26:35.504Z,43.98
2017-11-23T13:27:44.691Z,43.79
2017-11-23T13:28:53.614Z,43.79
2017-11-23T13:30:03.345Z,43.89
2017-11-23T13:31:12.534Z,43.89
2017-11-23T13:32:21.731Z,43.79
2017-11-23T13:33:31.213Z,43.89
2017-11-23T13:34:40.120Z,43.98
2017-11-23T13:35:49.561Z,43.79
2017-11-23T13:36:58.743Z,43.79
2017-11-23T13:38:07.923Z,43.89
2017-11-23T13:39:16.880Z,43.89
2017-11-23T13:40:26.078Z,43.89
2017-11-23T13:41:35.297Z,43.98
2017-11-23T13:42:44.243Z,43.89
2017-11-23T13:43:53.406Z,43.79
2017-11-23T13:45:02.326Z,43.89
2017-11-23T13:46:11.263Z,43.79
2017-11-23T13:47:20.475Z,43.98
2017-11-23T13:48:29.916Z,43.89
2017-11-23T13:49:39.081Z,43.89
2017-11-23T13:50:47.753Z,43.89
2017-11-23T13:51:56.921Z,43.89
2017-11-23T13:53:06.101Z,43.98
2017-11-23T13:54:15.277Z,43.79
2017-11-23T13:55:24.487Z,43.7
2017-11-23T13:56:33.645Z,43.7
2017-11-23T13:57:43.078Z,43.79
2017-11-23T13:58:52.317Z,44.08
2017-11-23T14:00:01.255Z,43.89
2017-11-23T14:01:10.732Z,43.89
2017-11-23T14:02:19.655Z,43.89
2017-11-23T14:03:28.834Z,43.79
2017-11-23T14:04:38.003Z,44.18
2017-11-23T14:05:46.911Z,44.18
2017-11-23T14:06:55.586Z,44.18
2017-11-23T14:08:05.562Z,44.18
2017-11-23T14:09:14.804Z,44.18
2017-11-23T14:10:24.302Z,43.98
2017-11-23T14:11:33.212Z,44.18
2017-11-23T14:12:41.871Z,44.18
2017-11-23T14:13:50.529Z,44.08
2017-11-23T14:14:59.703Z,44.18
2017-11-23T14:16:08.873Z,44.08
2017-11-23T14:17:17.789Z,44.27
2017-11-23T14:18:27.010Z,44.08
2017-11-23T14:19:36.458Z,44.08
2017-11-23T14:20:45.637Z,43.98
2017-11-23T14:21:54.554Z,44.18
2017-11-23T14:23:03.265Z,44.08
2017-11-23T14:24:12.203Z,44.27
2017-11-23T14:25:21.114Z,44.18
2017-11-23T14:26:30.610Z,44.08
2017-11-23T14:27:39.842Z,44.18
2017-11-23T14:28:49.322Z,43.98
2017-11-23T14:29:58.273Z,44.18
2017-11-23T14:31:07.773Z,44.18
2017-11-23T14:32:17.033Z,44.18
2017-11-23T14:33:26.364Z,44.08
2017-11-23T14:34:36.171Z,44.08
2017-11-23T14:35:44.918Z,44.08
2017-11-23T14:36:53.983Z,44.18
2017-11-23T14:38:03.246Z,44.08
2017-11-23T14:39:12.779Z,44.08
2017-11-23T14:40:22.331Z,44.08
2017-11-23T14:41:31.321Z,44.18
2017-11-23T14:42:40.321Z,44.08
2017-11-23T14:43:49.386Z,44.08
2017-11-23T14:44:58.440Z,44.08
2017-11-23T14:46:07.702Z,43.98
2017-11-23T14:47:16.689Z,44.08
2017-11-23T14:48:26.397Z,44.18
2017-11-23T14:49:35.316Z,44.08
2017-11-23T14:50:44.500Z,44.08
2017-11-23T14:51:53.447Z,44.08
2017-11-23T14:53:02.636Z,43.98
2017-11-23T14:54:11.609Z,44.08